Data for 04/02/2018

Time Sea-Level Adjusted Pressure Absolute Pressure Temperature Relative Humidity Dew Point   
(mb) (inHg) (mb) (inHg) (C) (F) (%) (C) (F)
00:05 1005 29.68 834 24.63 0.6 33.1 80 -2.4 27.6
00:10 1005 29.68 834 24.63 0.7 33.2 80 -2.4 27.7
00:15 1005 29.68 834 24.63 0.7 33.3 79 -2.5 27.5
00:20 1004 29.65 834 24.63 0.7 33.3 78 -2.7 27.2
00:25 1004 29.65 834 24.63 0.7 33.3 77 -2.8 26.9
00:30 1004 29.65 834 24.63 0.7 33.3 76 -3 26.7
00:35 1004 29.65 834 24.63 0.8 33.4 78 -2.6 27.3
00:40 1005 29.68 834 24.63 0.8 33.5 78 -2.6 27.3
00:45 1005 29.68 834 24.63 0.9 33.5 78 -2.5 27.5
00:50 1005 29.68 834 24.63 0.9 33.7 78 -2.5 27.5
00:55 1005 29.68 834 24.63 0.9 33.7 77 -2.6 27.3
01:00 1005 29.68 834 24.63 0.9 33.6 78 -2.6 27.3
01:05 1005 29.68 834 24.63 0.9 33.6 77 -2.7 27.2
01:10 1005 29.68 834 24.63 0.8 33.4 77 -2.7 27.1
01:15 1005 29.68 834 24.63 0.8 33.5 77 -2.7 27.2
01:20 1005 29.68 834 24.63 0.8 33.5 78 -2.6 27.4
01:25 1004 29.65 834 24.63 0.6 33.1 80 -2.4 27.6
01:30 1004 29.65 834 24.63 0.4 32.7 83 -2.2 28
01:35 1004 29.65 834 24.63 0 32.1 86 -2.1 28.3
01:40 1004 29.65 833 24.6 -0.2 31.7 88 -2 28.5
01:45 1004 29.65 833 24.6 -0.3 31.5 88 -2 28.4
01:50 1004 29.65 833 24.6 -0.3 31.5 89 -1.9 28.6
01:55 1004 29.65 833 24.6 -0.2 31.6 89 -1.8 28.8
02:00 1004 29.65 833 24.6 -0.2 31.6 89 -1.8 28.8
02:05 1004 29.65 833 24.6 -0.3 31.5 90 -1.8 28.8
02:10 1004 29.65 833 24.6 -0.2 31.6 90 -1.7 28.9
02:15 1004 29.65 833 24.6 -0.2 31.7 90 -1.7 29
02:20 1004 29.65 833 24.6 -0.1 31.7 90 -1.7 29
02:25 1004 29.65 833 24.6 -0.1 31.7 90 -1.7 29
02:30 1004 29.65 833 24.6 -0.1 31.8 90 -1.6 29.1
02:35 1004 29.65 833 24.6 -0.1 31.8 90 -1.5 29.2
02:40 1004 29.65 833 24.6 -0.1 31.8 90 -1.5 29.3
02:45 1004 29.65 833 24.6 -0.2 31.7 90 -1.6 29.1
02:50 1004 29.65 833 24.6 -0.4 31.3 91 -1.7 28.9
02:55 1004 29.65 833 24.6 -0.5 31.1 91 -1.8 28.7
03:00 1004 29.65 834 24.63 -0.7 30.8 91 -1.9 28.5
03:05 1004 29.65 834 24.63 -0.8 30.6 92 -2 28.4
03:10 1004 29.65 834 24.63 -0.8 30.6 92 -2 28.5
03:15 1004 29.65 834 24.63 -0.8 30.6 92 -1.9 28.5
03:20 1004 29.65 834 24.63 -0.8 30.5 92 -2 28.5
03:25 1005 29.68 834 24.63 -0.9 30.3 92 -2 28.3
03:30 1005 29.68 834 24.63 -1 30.2 92 -2.1 28.2
03:35 1005 29.68 834 24.63 -1.1 30 93 -2.2 28.1
03:40 1005 29.68 834 24.63 -1.2 29.9 93 -2.2 28.1
03:45 1005 29.68 834 24.63 -1.2 29.9 93 -2.2 28.1
03:50 1004 29.65 834 24.63 -1.2 29.8 93 -2.2 28
03:55 1004 29.65 834 24.63 -1.2 29.8 93 -2.2 28
04:00 1004 29.65 834 24.63 -1.3 29.7 93 -2.2 28
04:05 1004 29.65 834 24.63 -1.2 29.8 93 -2.2 28
04:10 1004 29.65 834 24.63 -1.2 29.8 93 -2.2 28.1
04:15 1004 29.65 834 24.63 -1.2 29.9 94 -2.1 28.2
04:20 1004 29.65 834 24.63 -1.1 30 93 -2 28.3
04:25 1004 29.65 834 24.63 -1.1 30 93 -2 28.3
04:30 1004 29.65 834 24.63 -1.2 29.9 94 -2.1 28.3
04:35 1004 29.65 833 24.6 -1.2 29.8 94 -2.2 28.1
04:40 1004 29.65 833 24.6 -1.3 29.6 94 -2.2 28
04:45 1004 29.65 833 24.6 -1.3 29.7 94 -2.2 28.1
04:50 1004 29.65 833 24.6 -1.3 29.7 94 -2.2 28.1
04:55 1004 29.65 833 24.6 -1.3 29.7 94 -2.2 28
05:00 1004 29.65 833 24.6 -1.3 29.7 94 -2.2 28.1
05:05 1004 29.65 833 24.6 -1.2 29.8 94 -2.1 28.2
05:10 1004 29.65 833 24.6 -1.2 29.8 94 -2.1 28.2
05:15 1004 29.65 833 24.6 -1.2 29.9 94 -2.1 28.3
05:20 1004 29.65 833 24.6 -1.2 29.9 94 -2.1 28.3
05:25 1004 29.65 833 24.6 -1.1 30 94 -2 28.4
05:30 1004 29.65 833 24.6 -1.1 30 94 -2 28.5
05:35 1004 29.65 833 24.6 -1.1 30 94 -2 28.5
05:40 1004 29.65 833 24.6 -1 30.1 94 -1.9 28.5
05:45 1004 29.65 833 24.6 -1.1 30.1 94 -1.9 28.5
05:50 1004 29.65 833 24.6 -1.1 30 94 -2 28.5
05:55 1004 29.65 833 24.6 -1 30.2 94 -1.9 28.7
06:00 1004 29.65 833 24.6 -1 30.2 94 -1.9 28.7
06:05 1004 29.65 833 24.6 -1.1 30 94 -2 28.5
06:10 1004 29.65 833 24.6 -1.2 29.9 94 -2.1 28.2
06:15 1004 29.65 833 24.6 -1.5 29.3 94 -2.4 27.7
06:20 1004 29.65 833 24.6 -1.7 29 94 -2.6 27.4
06:25 1004 29.65 833 24.6 -1.8 28.8 94 -2.6 27.3
06:30 1004 29.65 833 24.6 -1.8 28.8 94 -2.6 27.3
06:35 1004 29.65 833 24.6 -1.8 28.8 94 -2.7 27.2
06:40 1003 29.62 833 24.6 -1.8 28.7 94 -2.7 27.2
06:45 1003 29.62 833 24.6 -1.9 28.6 94 -2.8 27
06:50 1003 29.62 833 24.6 -1.9 28.5 94 -2.8 26.9
06:55 1004 29.65 833 24.6 -1.9 28.5 94 -2.8 26.9
07:00 1004 29.65 833 24.6 -1.9 28.6 94 -2.8 27
07:05 1004 29.65 833 24.6 -2 28.4 94 -2.9 26.8
07:10 1003 29.62 833 24.6 -2 28.4 94 -2.9 26.8
07:15 1003 29.62 833 24.6 -2 28.4 94 -2.9 26.9
07:20 1003 29.62 832 24.57 -2 28.4 94 -2.9 26.8
07:25 1003 29.62 833 24.6 -2 28.4 94 -2.9 26.8
07:30 1003 29.62 832 24.57 -2 28.5 94 -2.9 26.9
07:35 1003 29.62 832 24.57 -1.9 28.5 94 -2.8 26.9
07:40 1003 29.62 832 24.57 -2 28.5 94 -2.9 26.9
07:45 1003 29.62 832 24.57 -1.9 28.6 94 -2.8 27
07:50 1003 29.62 832 24.57 -1.9 28.6 94 -2.8 27
07:55 1003 29.62 832 24.57 -1.8 28.7 94 -2.7 27.1
08:00 1003 29.62 832 24.57 -1.8 28.7 94 -2.7 27.1
08:05 1003 29.62 832 24.57 -1.8 28.7 94 -2.7 27.1
08:10 1003 29.62 832 24.57 -1.7 28.9 94 -2.6 27.2
08:15 1003 29.62 832 24.57 -1.7 29 94 -2.5 27.4
08:20 1003 29.62 832 24.57 -1.6 29.1 94 -2.5 27.5
08:25 1003 29.62 832 24.57 -1.6 29.1 94 -2.5 27.5
08:30 1003 29.62 832 24.57 -1.6 29.1 94 -2.5 27.5
08:35 1003 29.62 832 24.57 -1.4 29.4 94 -2.4 27.8
08:40 1003 29.62 832 24.57 -1.3 29.6 93 -2.3 27.8
08:45 1003 29.62 832 24.57 -1.3 29.6 93 -2.3 27.8
08:50 1003 29.62 832 24.57 -1.3 29.6 93 -2.3 27.8
08:55 1003 29.62 832 24.57 -1.3 29.7 93 -2.3 27.8
09:00 1003 29.62 832 24.57 -1.2 29.8 93 -2.3 27.9
09:05 1003 29.62 832 24.57 -1.2 29.9 92 -2.3 27.9
09:10 1003 29.62 832 24.57 -1.1 29.9 92 -2.3 27.9
09:15 1003 29.62 832 24.57 -1 30.2 91 -2.3 27.9
09:20 1003 29.62 832 24.57 -0.8 30.5 91 -2.1 28.2
09:25 1003 29.62 832 24.57 -0.6 30.9 90 -2 28.4
09:30 1003 29.62 832 24.57 -0.4 31.3 89 -2 28.5
09:35 1003 29.62 832 24.57 -0.4 31.3 89 -2 28.3
09:40 1003 29.62 832 24.57 -0.4 31.2 88 -2.1 28.1
09:45 1003 29.62 832 24.57 -0.3 31.5 88 -2 28.4
09:50 1003 29.62 832 24.57 0.1 32.1 85 -2.1 28.2
09:55 1002 29.59 832 24.57 0.4 32.8 83 -2.1 28.2
10:00 1002 29.59 832 24.57 0.8 33.5 80 -2.3 27.8
10:05 1002 29.59 832 24.57 1 33.8 76 -2.8 26.9
10:10 1002 29.59 832 24.57 1.2 34.1 76 -2.5 27.5
10:15 1002 29.59 832 24.57 1.4 34.5 74 -2.7 27.2
10:20 1003 29.62 832 24.57 1.6 34.8 69 -3.5 25.7
10:25 1003 29.62 832 24.57 1.7 35 67 -3.8 25.2
10:30 1003 29.62 832 24.57 1.8 35.3 64 -4.3 24.2
10:35 1003 29.62 832 24.57 2 35.7 65 -3.9 25
10:40 1003 29.62 832 24.57 2.1 35.8 66 -3.6 25.6
10:45 1003 29.62 832 24.57 2.1 35.8 66 -3.6 25.5
10:50 1003 29.62 832 24.57 2.4 36.3 69 -2.7 27.2
10:55 1003 29.62 832 24.57 2.4 36.3 71 -2.3 27.9
11:00 1003 29.62 832 24.57 1.6 34.9 79 -1.6 29.1
11:05 1003 29.62 833 24.6 0.2 32.3 83 -2.4 27.7
11:10 1004 29.65 833 24.6 -1.1 30 85 -3.3 26.1
11:15 1004 29.65 833 24.6 -1.9 28.5 87 -3.9 25
11:20 1004 29.65 833 24.6 -2.4 27.8 86 -4.4 24
11:25 1004 29.65 834 24.63 -2.6 27.4 84 -5 23.1
11:30 1004 29.65 834 24.63 -2.9 26.8 86 -4.9 23.2
11:35 1005 29.68 834 24.63 -3.3 26 88 -5.1 22.9
11:40 1005 29.68 834 24.63 -3.6 25.6 89 -5.2 22.7
11:45 1005 29.68 834 24.63 -3.6 25.4 88 -5.3 22.5
11:50 1005 29.68 834 24.63 -3.8 25.1 89 -5.4 22.3
11:55 1005 29.68 834 24.63 -3.7 25.3 88 -5.4 22.3
12:00 1005 29.68 835 24.66 -3.8 25.1 88 -5.5 22.1
12:05 1006 29.71 835 24.66 -4 24.9 87 -5.8 21.6
12:10 1006 29.71 835 24.66 -4.2 24.4 88 -6 21.2
12:15 1006 29.71 835 24.66 -4.4 24.1 88 -6.1 21
12:20 1006 29.71 835 24.66 -4.5 23.8 89 -6.2 20.9
12:25 1006 29.71 835 24.66 -4.3 24.3 87 -6.2 20.9
12:30 1006 29.71 836 24.69 -4.3 24.2 86 -6.3 20.7
12:35 1007 29.74 836 24.69 -4.3 24.2 85 -6.4 20.4
12:40 1007 29.74 836 24.69 -4.2 24.4 82 -6.8 19.8
12:45 1007 29.74 836 24.69 -4.1 24.7 79 -7.2 19.1
12:50 1007 29.74 836 24.69 -3.9 25 78 -7.2 19.1
12:55 1007 29.74 837 24.72 -3.8 25.2 78 -7.1 19.1
13:00 1008 29.77 837 24.72 -3.9 24.9 76 -7.5 18.5
13:05 1008 29.77 837 24.72 -4.2 24.5 79 -7.3 18.9
13:10 1008 29.77 837 24.72 -4.1 24.6 78 -7.4 18.7
13:15 1008 29.77 837 24.72 -3.9 24.9 78 -7.2 19.1
13:20 1008 29.77 837 24.72 -3.8 25.1 80 -6.9 19.6
13:25 1008 29.77 837 24.72 -3.7 25.3 79 -6.9 19.6
13:30 1008 29.77 837 24.72 -3.8 25.2 80 -6.8 19.8
13:35 1008 29.77 837 24.72 -3.9 25 82 -6.6 20.1
13:40 1008 29.77 837 24.72 -3.8 25.1 82 -6.4 20.5
13:45 1008 29.77 837 24.72 -3.8 25.2 82 -6.4 20.4
13:50 1008 29.77 838 24.75 -4.1 24.5 84 -6.4 20.4
13:55 1008 29.77 838 24.75 -4 24.8 84 -6.3 20.6
14:00 1008 29.77 838 24.75 -3.8 25.2 84 -6.2 20.9
14:05 1009 29.8 838 24.75 -4 24.9 83 -6.5 20.4
14:10 1009 29.8 838 24.75 -4 24.8 84 -6.3 20.7
14:15 1009 29.8 838 24.75 -3.7 25.3 82 -6.3 20.6
14:20 1009 29.8 838 24.75 -3.4 25.9 80 -6.4 20.4
14:25 1009 29.8 838 24.75 -3.3 26 81 -6.2 20.8
14:30 1009 29.8 838 24.75 -2.9 26.7 80 -5.9 21.3
14:35 1009 29.8 838 24.75 -2.5 27.5 77 -6 21.2
14:40 1009 29.8 838 24.75 -2.4 27.7 78 -5.8 21.6
14:45 1009 29.8 838 24.75 -2.4 27.7 76 -6 21.2
14:50 1009 29.8 838 24.75 -2.7 27.1 76 -6.4 20.5
14:55 1009 29.8 838 24.75 -3.7 25.4 81 -6.5 20.2
15:00 1009 29.8 838 24.75 -3.8 25.2 77 -7.2 19.1
15:05 1009 29.8 838 24.75 -3.8 25.1 78 -7.1 19.2
15:10 1009 29.8 838 24.75 -3.8 25.2 76 -7.5 18.6
15:15 1009 29.8 838 24.75 -4.4 24 83 -6.9 19.5
15:20 1009 29.8 839 24.78 -4 24.8 79 -7.2 19.1
15:25 1009 29.8 839 24.78 -3.8 25.2 81 -6.6 20.1
15:30 1009 29.8 839 24.78 -3.3 26 78 -6.7 20
15:35 1009 29.8 839 24.78 -3.3 26 77 -6.8 19.8
15:40 1009 29.8 839 24.78 -2.8 26.9 75 -6.7 19.9
15:45 1009 29.8 838 24.75 -2.7 27.1 77 -6.1 21
15:50 1009 29.8 838 24.75 -2.6 27.2 74 -6.7 20
15:55 1009 29.8 838 24.75 -2.7 27.1 74 -6.8 19.8
16:00 1009 29.8 838 24.75 -3 26.6 75 -6.9 19.6
16:05 1009 29.8 839 24.78 -3.6 25.6 78 -6.8 19.7
16:10 1009 29.8 839 24.78 -3.4 25.8 78 -6.7 19.9
16:15 1009 29.8 839 24.78 -3.2 26.2 75 -7 19.3
16:20 1010 29.83 839 24.78 -4.1 24.6 81 -6.9 19.5
16:25 1010 29.83 839 24.78 -3.9 24.9 80 -7 19.5
16:30 1010 29.83 839 24.78 -3.3 26.1 75 -7.1 19.3
16:35 1010 29.83 840 24.81 -3.5 25.8 74 -7.5 18.6
16:40 1010 29.83 840 24.81 -4.3 24.2 79 -7.5 18.6
16:45 1011 29.85 840 24.81 -4.2 24.5 77 -7.6 18.3
16:50 1011 29.85 840 24.81 -4 24.8 77 -7.5 18.5
16:55 1011 29.85 840 24.81 -4.2 24.5 78 -7.5 18.5
17:00 1011 29.85 840 24.81 -4 24.9 77 -7.3 18.8
17:05 1011 29.85 840 24.81 -3.8 25.3 75 -7.5 18.4
17:10 1011 29.85 840 24.81 -3.7 25.3 73 -7.9 17.8
17:15 1011 29.85 840 24.81 -3.9 24.9 75 -7.8 18
17:20 1011 29.85 840 24.81 -3.9 25 73 -8 17.7
17:25 1011 29.85 840 24.81 -3.9 24.9 70 -8.5 16.6
17:30 1011 29.85 841 24.83 -4.2 24.4 70 -8.9 15.9
17:35 1011 29.85 841 24.83 -4.6 23.7 67 -9.9 14.3
17:40 1012 29.88 841 24.83 -4.7 23.5 66 -10.1 13.8
17:45 1012 29.88 841 24.83 -4.7 23.6 66 -10.1 13.9
17:50 1012 29.88 841 24.83 -5.1 22.8 67 -10.3 13.4
17:55 1012 29.88 841 24.83 -5.6 22 69 -10.4 13.4
18:00 1012 29.88 841 24.83 -5.8 21.5 73 -9.9 14.2
18:05 1012 29.88 841 24.83 -6.2 20.8 77 -9.6 14.7
18:10 1012 29.88 842 24.86 -6.5 20.3 81 -9.3 15.3
18:15 1013 29.91 842 24.86 -6.6 20.2 83 -9.1 15.7
18:20 1013 29.91 842 24.86 -6.5 20.3 82 -9.1 15.7
18:25 1013 29.91 842 24.86 -6.5 20.2 82 -9.1 15.7
18:30 1013 29.91 842 24.86 -6.6 20.2 83 -9 15.7
18:35 1013 29.91 842 24.86 -6.6 20.2 83 -9 15.9
18:40 1013 29.91 842 24.86 -6.4 20.4 83 -8.9 15.9
18:45 1013 29.91 842 24.86 -6.3 20.6 82 -8.9 16
18:50 1013 29.91 842 24.86 -6.4 20.5 82 -9 15.8
18:55 1013 29.91 842 24.86 -6.4 20.5 82 -9 15.8
19:00 1013 29.91 842 24.86 -6.4 20.4 82 -9 15.8
19:05 1013 29.91 843 24.89 -6.3 20.6 82 -8.8 16.1
19:10 1014 29.94 843 24.89 -6.4 20.6 79 -9.3 15.2
19:15 1014 29.94 843 24.89 -6.6 20.1 80 -9.6 14.8
19:20 1014 29.94 843 24.89 -6.6 20 80 -9.6 14.8
19:25 1014 29.94 843 24.89 -6.6 20.1 79 -9.6 14.6
19:30 1014 29.94 843 24.89 -6.7 19.9 80 -9.5 14.8
19:35 1014 29.94 843 24.89 -6.8 19.7 79 -10 14.1
19:40 1014 29.94 843 24.89 -7 19.4 79 -10 14
19:45 1014 29.94 843 24.89 -7.1 19.3 77 -10.5 13
19:50 1014 29.94 843 24.89 -7.2 19 77 -10.6 13
19:55 1014 29.94 844 24.92 -7.2 19.1 76 -10.7 12.8
20:00 1014 29.94 844 24.92 -7.2 19.1 74 -11 12.2
20:05 1014 29.94 844 24.92 -7.3 18.8 73 -11.3 11.6
20:10 1015 29.97 844 24.92 -7.4 18.6 73 -11.4 11.4
20:15 1015 29.97 844 24.92 -7.5 18.5 74 -11.3 11.6
20:20 1015 29.97 844 24.92 -7.6 18.4 73 -11.7 11
20:25 1015 29.97 844 24.92 -7.7 18.1 73 -11.7 10.9
20:30 1015 29.97 844 24.92 -7.8 17.9 73 -11.8 10.8
20:35 1015 29.97 844 24.92 -8 17.6 73 -12 10.3
20:40 1015 29.97 844 24.92 -8.1 17.4 73 -12.2 10
20:45 1015 29.97 844 24.92 -8.3 17.1 73 -12.3 9.9
20:50 1015 29.97 845 24.95 -8.4 16.9 74 -12.3 9.9
20:55 1015 29.97 845 24.95 -8.4 16.9 73 -12.4 9.6
21:00 1016 30 845 24.95 -8.5 16.7 73 -12.5 9.6
21:05 1016 30 845 24.95 -8.6 16.6 74 -12.4 9.6
21:10 1016 30 845 24.95 -8.6 16.5 74 -12.5 9.4
21:15 1016 30 845 24.95 -8.6 16.5 74 -12.5 9.5
21:20 1016 30 845 24.95 -8.6 16.5 74 -12.4 9.7
21:25 1016 30 845 24.95 -8.7 16.4 74 -12.5 9.5
21:30 1016 30 845 24.95 -8.7 16.3 74 -12.6 9.3
21:35 1016 30 845 24.95 -8.8 16.2 73 -12.8 8.9
21:40 1016 30 845 24.95 -9 15.9 74 -12.9 8.8
21:45 1016 30 846 24.98 -9.1 15.6 73 -13.1 8.3
21:50 1016 30 846 24.98 -9.7 14.5 76 -13.2 8.2
21:55 1016 30 846 24.98 -10.3 13.5 78 -13.5 7.7
22:00 1016 30 846 24.98 -10.4 13.3 77 -13.7 7.4
22:05 1016 30 846 24.98 -10.2 13.6 79 -13.2 8.2
22:10 1016 30 846 24.98 -10.3 13.5 79 -13.3 8
22:15 1016 30 846 24.98 -10.3 13.4 77 -13.6 7.6
22:20 1017 30.03 846 24.98 -10.3 13.5 78 -13.4 7.9
22:25 1017 30.03 846 24.98 -10.3 13.4 79 -13.3 8
22:30 1017 30.03 846 24.98 -10.5 13.1 80 -13.4 7.9
22:35 1017 30.03 846 24.98 -10.6 13 80 -13.4 8
22:40 1017 30.03 846 24.98 -10.3 13.6 79 -13.2 8.3
22:45 1017 30.03 846 24.98 -10 14 78 -13.1 8.3
22:50 1017 30.03 846 24.98 -9.8 14.3 77 -13.2 8.3
22:55 1017 30.03 846 24.98 -9.9 14.3 77 -13.1 8.4
23:00 1017 30.03 846 24.98 -10.3 13.5 78 -13.5 7.8
23:05 1017 30.03 846 24.98 -11 12.2 81 -13.7 7.4
23:10 1017 30.03 846 24.98 -11.2 11.8 82 -13.7 7.3
23:15 1017 30.03 846 24.98 -11.1 12 82 -13.6 7.5
23:20 1017 30.03 846 24.98 -10.9 12.3 82 -13.5 7.7
23:25 1017 30.03 846 24.98 -10.7 12.7 81 -13.4 7.8
23:30 1017 30.03 846 24.98 -10.8 12.6 79 -13.7 7.3
23:35 1017 30.03 846 24.98 -10.8 12.7 79 -13.8 7.2
23:40 1017 30.03 846 24.98 -10.6 12.9 79 -13.6 7.5
23:45 1017 30.03 846 24.98 -10.7 12.8 78 -13.8 7.1
23:50 1017 30.03 846 24.98 -11.2 11.9 79 -14.2 6.5
23:55 1017 30.03 846 24.98 -12.1 10.1 81 -14.8 5.4
24:00 1017 30.03 846 24.98 -12.6 9.3 83 -14.9 5.2